www.cux-wetter.de
Wetterdaten: Freitag, 09.11.2007
Datum Zeit Temp. A. Feuchte A. Luftdruck Regen Wind Richtung Richtung Sonnenschein Solar Taupunkt Windchill Windben
09.11.2007 00:04 8,2 C 77 % 996,5 hPa 0,0 l/m 35,1 km/h (5 Bft) NW 325 0 min 0 W/m 4,4 C -2,9 C 35,1 km/h (5 Bft)
09.11.2007 00:09 8,2 C 77 % 996,5 hPa 0,0 l/m 32,9 km/h (5 Bft) NW 315 0 min 0 W/m 4,4 C -2,5 C 32,9 km/h (5 Bft)
09.11.2007 00:14 8,2 C 78 % 996,5 hPa 0,0 l/m 31,2 km/h (5 Bft) NW 315 0 min 0 W/m 4,6 C -2,1 C 31,2 km/h (5 Bft)
09.11.2007 00:19 7,9 C 83 % 996,5 hPa 0,3 l/m 33,9 km/h (5 Bft) NW 320 0 min 0 W/m 5,2 C -3,1 C 33,9 km/h (5 Bft)
09.11.2007 00:24 7,4 C 81 % 996,5 hPa 0,0 l/m 45,0 km/h (6 Bft) NW 320 0 min 0 W/m 4,4 C -5,7 C 45,0 km/h (6 Bft)
09.11.2007 00:29 7,3 C 79 % 996,5 hPa 0,0 l/m 31,2 km/h (5 Bft) N-NW 330 0 min 0 W/m 3,9 C -3,4 C 31,2 km/h (5 Bft)
09.11.2007 00:34 7,5 C 82 % 996,5 hPa 0,0 l/m 37,5 km/h (5 Bft) NW 315 0 min 0 W/m 4,6 C -4,4 C 37,5 km/h (5 Bft)
09.11.2007 00:39 7,2 C 78 % 996,5 hPa 0,0 l/m 45,8 km/h (6 Bft) N-NW 340 0 min 0 W/m 3,6 C -6,1 C 45,8 km/h (6 Bft)
09.11.2007 00:44 7,2 C 78 % 996,5 hPa 0,0 l/m 33,0 km/h (5 Bft) N-NW 330 0 min 0 W/m 3,6 C -4,0 C 33,0 km/h (5 Bft)
09.11.2007 00:49 7,2 C 76 % 996,5 hPa 0,0 l/m 36,4 km/h (5 Bft) N-NW 330 0 min 0 W/m 3,3 C -4,6 C 36,4 km/h (5 Bft)
09.11.2007 00:54 7,2 C 78 % 996,5 hPa 0,0 l/m 25,4 km/h (4 Bft) N-NW 330 0 min 0 W/m 3,6 C -2,1 C 25,4 km/h (4 Bft)
09.11.2007 00:59 7,3 C 79 % 996,5 hPa 0,0 l/m 25,4 km/h (4 Bft) N-NW 330 0 min 0 W/m 3,9 C -1,9 C 25,4 km/h (4 Bft)
09.11.2007 01:04 7,4 C 82 % 996,5 hPa 0,6 l/m 31,8 km/h (5 Bft) N 5 0 min 0 W/m 4,5 C -3,4 C 31,8 km/h (5 Bft)
09.11.2007 01:09 7,0 C 84 % 996,5 hPa 0,0 l/m 35,0 km/h (5 Bft) N-NW 345 0 min 0 W/m 4,5 C -4,7 C 35,0 km/h (5 Bft)
09.11.2007 01:14 7,0 C 85 % 995,5 hPa 0,0 l/m 36,5 km/h (5 Bft) N-NW 340 0 min 0 W/m 4,7 C -4,9 C 36,5 km/h (5 Bft)
09.11.2007 01:19 7,2 C 83 % 995,5 hPa 0,0 l/m 39,9 km/h (6 Bft) N 350 0 min 0 W/m 4,5 C -5,2 C 39,9 km/h (6 Bft)
09.11.2007 01:24 7,2 C 83 % 995,5 hPa 0,0 l/m 32,7 km/h (5 Bft) N 350 0 min 0 W/m 4,5 C -3,9 C 32,7 km/h (5 Bft)
09.11.2007 01:29 7,7 C 76 % 996,5 hPa 0,0 l/m 41,9 km/h (6 Bft) N-NW 330 0 min 0 W/m 3,7 C -4,8 C 41,9 km/h (6 Bft)
09.11.2007 01:34 7,7 C 75 % 996,5 hPa 0,0 l/m 46,6 km/h (6 Bft) NW 320 0 min 0 W/m 3,6 C -5,4 C 46,6 km/h (6 Bft)
09.11.2007 01:39 7,9 C 71 % 995,5 hPa 0,0 l/m 34,3 km/h (5 Bft) N-NW 340 0 min 0 W/m 3,0 C -3,2 C 34,3 km/h (5 Bft)
09.11.2007 01:44 7,9 C 68 % 995,5 hPa 0,0 l/m 37,4 km/h (5 Bft) N-NW 345 0 min 0 W/m 2,4 C -3,8 C 37,4 km/h (5 Bft)
09.11.2007 01:49 7,9 C 68 % 995,5 hPa 0,0 l/m 37,4 km/h (5 Bft) N-NW 345 0 min 0 W/m 2,4 C -3,8 C 37,4 km/h (5 Bft)
09.11.2007 01:54 7,9 C 71 % 996,5 hPa 0,0 l/m 41,4 km/h (6 Bft) NW 315 0 min 0 W/m 3,0 C -4,4 C 41,4 km/h (6 Bft)
09.11.2007 01:59 7,6 C 72 % 996,5 hPa 0,0 l/m 38,1 km/h (6 Bft) NW 315 0 min 0 W/m 2,9 C -4,3 C 38,1 km/h (6 Bft)
09.11.2007 02:04 7,6 C 71 % 996,5 hPa 0,0 l/m 42,7 km/h (6 Bft) NW 310 0 min 0 W/m 2,7 C -5,1 C 42,7 km/h (6 Bft)
09.11.2007 02:09 7,5 C 71 % 996,5 hPa 0,0 l/m 48,1 km/h (6 Bft) NW 315 0 min 0 W/m 2,6 C -5,9 C 48,1 km/h (6 Bft)
09.11.2007 02:14 7,5 C 73 % 996,5 hPa 0,0 l/m 36,8 km/h (5 Bft) NW 325 0 min 0 W/m 3,0 C -4,3 C 36,8 km/h (5 Bft)
09.11.2007 02:19 7,3 C 70 % 996,5 hPa 0,0 l/m 38,9 km/h (6 Bft) NW 320 0 min 0 W/m 2,2 C -4,9 C 38,9 km/h (6 Bft)
09.11.2007 02:24 7,4 C 70 % 996,5 hPa 0,0 l/m 34,8 km/h (5 Bft) N-NW 330 0 min 0 W/m 2,3 C -4,0 C 34,8 km/h (5 Bft)
09.11.2007 02:29 7,4 C 70 % 996,5 hPa 0,0 l/m 33,2 km/h (5 Bft) NW 310 0 min 0 W/m 2,3 C -3,7 C 33,2 km/h (5 Bft)
09.11.2007 02:34 7,5 C 68 % 996,5 hPa 0,0 l/m 36,7 km/h (5 Bft) NW 315 0 min 0 W/m 2,0 C -4,2 C 36,7 km/h (5 Bft)
09.11.2007 02:39 7,4 C 66 % 996,5 hPa 0,0 l/m 45,6 km/h (6 Bft) NW 320 0 min 0 W/m 1,5 C -5,8 C 45,6 km/h (6 Bft)
09.11.2007 02:44 7,2 C 72 % 996,5 hPa 0,0 l/m 46,7 km/h (6 Bft) N-NW 330 0 min 0 W/m 2,5 C -6,2 C 46,7 km/h (6 Bft)
09.11.2007 02:49 6,8 C 76 % 996,5 hPa 0,0 l/m 31,9 km/h (5 Bft) N-NW 330 0 min 0 W/m 2,9 C -4,3 C 31,9 km/h (5 Bft)
09.11.2007 02:54 6,7 C 77 % 996,5 hPa 0,0 l/m 28,5 km/h (5 Bft) NW 315 0 min 0 W/m 3,0 C -3,6 C 28,5 km/h (5 Bft)
09.11.2007 02:59 6,8 C 77 % 996,5 hPa 0,0 l/m 33,1 km/h (5 Bft) NW 320 0 min 0 W/m 3,1 C -4,6 C 33,1 km/h (5 Bft)
09.11.2007 03:04 6,8 C 77 % 996,5 hPa 0,0 l/m 33,1 km/h (5 Bft) NW 320 0 min 0 W/m 3,1 C -4,6 C 33,1 km/h (5 Bft)
09.11.2007 03:09 7,0 C 69 % 996,5 hPa 0,0 l/m 41,3 km/h (6 Bft) W-NW 300 0 min 0 W/m 1,7 C -5,8 C 41,3 km/h (6 Bft)
09.11.2007 03:14 7,0 C 69 % 996,5 hPa 0,0 l/m 27,6 km/h (5 Bft) NW 315 0 min 0 W/m 1,7 C -3,0 C 27,6 km/h (5 Bft)
09.11.2007 03:19 7,0 C 70 % 995,5 hPa 0,0 l/m 33,9 km/h (5 Bft) NW 310 0 min 0 W/m 1,9 C -4,4 C 33,9 km/h (5 Bft)
09.11.2007 03:24 7,1 C 73 % 995,5 hPa 0,0 l/m 37,2 km/h (5 Bft) N 350 0 min 0 W/m 2,6 C -4,9 C 37,2 km/h (5 Bft)
09.11.2007 03:29 6,6 C 74 % 996,5 hPa 0,0 l/m 32,7 km/h (5 Bft) N-NW 345 0 min 0 W/m 2,3 C -4,7 C 32,7 km/h (5 Bft)
09.11.2007 03:34 6,4 C 76 % 996,5 hPa 0,3 l/m 31,5 km/h (5 Bft) NW 320 0 min 0 W/m 2,5 C -4,8 C 31,5 km/h (5 Bft)
09.11.2007 03:39 6,0 C 79 % 996,5 hPa 0,0 l/m 31,5 km/h (5 Bft) N-NW 345 0 min 0 W/m 2,6 C -5,3 C 31,5 km/h (5 Bft)
09.11.2007 03:44 5,9 C 79 % 996,5 hPa 0,0 l/m 19,6 km/h (3 Bft) N 350 0 min 0 W/m 2,5 C -1,9 C 19,6 km/h (3 Bft)
09.11.2007 03:49 6,0 C 81 % 995,5 hPa 0,0 l/m 28,2 km/h (5 Bft) N-NW 335 0 min 0 W/m 3,0 C -4,5 C 28,2 km/h (5 Bft)
09.11.2007 03:54 6,4 C 80 % 995,5 hPa 0,0 l/m 32,8 km/h (5 Bft) N-NW 335 0 min 0 W/m 3,2 C -5,1 C 32,8 km/h (5 Bft)
09.11.2007 03:59 6,7 C 75 % 996,5 hPa 0,0 l/m 37,4 km/h (5 Bft) N-NW 345 0 min 0 W/m 2,6 C -5,5 C 37,4 km/h (5 Bft)
09.11.2007 04:04 6,8 C 78 % 996,5 hPa 0,0 l/m 36,2 km/h (5 Bft) N-NW 335 0 min 0 W/m 3,2 C -5,2 C 36,2 km/h (5 Bft)
09.11.2007 04:09 6,8 C 75 % 996,5 hPa 0,0 l/m 37,0 km/h (5 Bft) NW 320 0 min 0 W/m 2,7 C -5,3 C 37,0 km/h (5 Bft)
09.11.2007 04:14 6,7 C 73 % 996,5 hPa 0,0 l/m 35,6 km/h (5 Bft) NW 310 0 min 0 W/m 2,2 C -5,2 C 35,6 km/h (5 Bft)
09.11.2007 04:19 6,6 C 77 % 996,5 hPa 0,0 l/m 43,5 km/h (6 Bft) NW 320 0 min 0 W/m 2,9 C -6,7 C 43,5 km/h (6 Bft)
09.11.2007 04:24 6,6 C 76 % 996,5 hPa 0,0 l/m 24,2 km/h (4 Bft) NW 305 0 min 0 W/m 2,7 C -2,5 C 24,2 km/h (4 Bft)
09.11.2007 04:29 6,5 C 74 % 996,5 hPa 0,0 l/m 37,5 km/h (5 Bft) NW 315 0 min 0 W/m 2,2 C -5,9 C 37,5 km/h (5 Bft)
09.11.2007 04:34 6,8 C 75 % 996,5 hPa 0,0 l/m 38,3 km/h (6 Bft) N-NW 330 0 min 0 W/m 2,7 C -5,6 C 38,3 km/h (6 Bft)
09.11.2007 04:39 6,8 C 72 % 996,5 hPa 0,0 l/m 38,8 km/h (6 Bft) N-NW 340 0 min 0 W/m 2,1 C -5,6 C 38,8 km/h (6 Bft)
09.11.2007 04:44 6,9 C 73 % 996,5 hPa 0,0 l/m 36,8 km/h (5 Bft) N-NW 330 0 min 0 W/m 2,4 C -5,1 C 36,8 km/h (5 Bft)
09.11.2007 04:49 6,8 C 73 % 996,5 hPa 0,0 l/m 41,5 km/h (6 Bft) N-NW 335 0 min 0 W/m 2,3 C -6,1 C 41,5 km/h (6 Bft)
09.11.2007 04:54 6,7 C 74 % 996,5 hPa 0,0 l/m 38,2 km/h (6 Bft) NW 320 0 min 0 W/m 2,4 C -5,7 C 38,2 km/h (6 Bft)
09.11.2007 04:59 6,6 C 75 % 996,5 hPa 0,0 l/m 31,5 km/h (5 Bft) NW 315 0 min 0 W/m 2,5 C -4,5 C 31,5 km/h (5 Bft)
09.11.2007 05:04 6,4 C 74 % 996,5 hPa 0,0 l/m 31,5 km/h (5 Bft) NW 315 0 min 0 W/m 2,1 C -4,8 C 31,5 km/h (5 Bft)
09.11.2007 05:09 6,2 C 76 % 996,5 hPa 0,0 l/m 34,3 km/h (5 Bft) NW 315 0 min 0 W/m 2,3 C -5,7 C 34,3 km/h (5 Bft)
09.11.2007 05:14 5,8 C 79 % 996,5 hPa 0,3 l/m 32,5 km/h (5 Bft) NW 320 0 min 0 W/m 2,4 C -5,8 C 32,5 km/h (5 Bft)
09.11.2007 05:19 5,6 C 81 % 996,5 hPa 0,0 l/m 30,3 km/h (5 Bft) NW 325 0 min 0 W/m 2,6 C -5,6 C 30,3 km/h (5 Bft)
09.11.2007 05:24 5,8 C 83 % 996,5 hPa 0,0 l/m 28,1 km/h (5 Bft) NW 320 0 min 0 W/m 3,1 C -4,8 C 28,1 km/h (5 Bft)
09.11.2007 05:29 5,9 C 82 % 996,5 hPa 0,0 l/m 35,7 km/h (5 Bft) N-NW 330 0 min 0 W/m 3,1 C -6,4 C 35,7 km/h (5 Bft)
09.11.2007 05:34 6,3 C 77 % 996,5 hPa 0,0 l/m 43,4 km/h (6 Bft) NW 320 0 min 0 W/m 2,6 C -7,1 C 43,4 km/h (6 Bft)
09.11.2007 05:39 6,6 C 73 % 996,5 hPa 0,0 l/m 38,3 km/h (6 Bft) NW 315 0 min 0 W/m 2,1 C -5,9 C 38,3 km/h (6 Bft)
09.11.2007 05:44 6,6 C 73 % 996,5 hPa 0,0 l/m 39,7 km/h (6 Bft) NW 315 0 min 0 W/m 2,1 C -6,1 C 39,7 km/h (6 Bft)
09.11.2007 05:49 6,6 C 72 % 996,5 hPa 0,0 l/m 38,8 km/h (6 Bft) NW 310 0 min 0 W/m 1,9 C -5,9 C 38,8 km/h (6 Bft)
09.11.2007 05:54 6,6 C 74 % 996,5 hPa 0,0 l/m 37,0 km/h (5 Bft) NW 320 0 min 0 W/m 2,3 C -5,6 C 37,0 km/h (5 Bft)
09.11.2007 05:59 6,6 C 76 % 996,5 hPa 0,0 l/m 29,4 km/h (5 Bft) N-NO 15 0 min 0 W/m 2,7 C -4,0 C 29,4 km/h (5 Bft)
09.11.2007 06:04 6,4 C 79 % 996,5 hPa 0,0 l/m 29,4 km/h (5 Bft) N-NO 15 0 min 0 W/m 3,0 C -4,3 C 29,4 km/h (5 Bft)
09.11.2007 06:09 6,4 C 79 % 996,5 hPa 0,3 l/m 34,9 km/h (5 Bft) N-NW 330 0 min 0 W/m 3,0 C -5,5 C 34,9 km/h (5 Bft)
09.11.2007 06:14 6,4 C 76 % 996,5 hPa 0,0 l/m 48,9 km/h (7 Bft) N 350 0 min 0 W/m 2,5 C -7,7 C 48,9 km/h (7 Bft)
09.11.2007 06:19 6,5 C 77 % 995,5 hPa 0,0 l/m 35,3 km/h (5 Bft) N 350 0 min 0 W/m 2,8 C -5,4 C 35,3 km/h (5 Bft)
09.11.2007 06:24 6,8 C 79 % 995,5 hPa 0,0 l/m 29,9 km/h (5 Bft) NW 320 0 min 0 W/m 3,4 C -3,8 C 29,9 km/h (5 Bft)
09.11.2007 06:29 7,0 C 73 % 995,5 hPa 0,0 l/m 40,7 km/h (6 Bft) NW 315 0 min 0 W/m 2,5 C -5,7 C 40,7 km/h (6 Bft)
09.11.2007 06:34 7,2 C 71 % 995,5 hPa 0,0 l/m 46,9 km/h (6 Bft) N-NW 340 0 min 0 W/m 2,3 C -6,2 C 46,9 km/h (6 Bft)
09.11.2007 06:39 7,3 C 70 % 996,5 hPa 0,0 l/m 40,3 km/h (6 Bft) N-NW 330 0 min 0 W/m 2,2 C -5,2 C 40,3 km/h (6 Bft)
09.11.2007 06:44 7,5 C 75 % 996,5 hPa 0,0 l/m 41,4 km/h (6 Bft) N-NW 330 0 min 0 W/m 3,4 C -5,0 C 41,4 km/h (6 Bft)
09.11.2007 06:49 7,4 C 73 % 996,5 hPa 0,0 l/m 39,6 km/h (6 Bft) N-NW 345 0 min 0 W/m 2,9 C -4,9 C 39,6 km/h (6 Bft)
09.11.2007 06:54 7,3 C 74 % 996,5 hPa 0,0 l/m 45,2 km/h (6 Bft) N-NW 330 0 min 0 W/m 3,0 C -5,9 C 45,2 km/h (6 Bft)
09.11.2007 06:59 7,3 C 78 % 996,5 hPa 0,0 l/m 43,0 km/h (6 Bft) NW 325 0 min 0 W/m 3,7 C -5,6 C 43,0 km/h (6 Bft)
09.11.2007 07:04 7,1 C 79 % 996,5 hPa 0,0 l/m 42,5 km/h (6 Bft) NW 325 0 min 0 W/m 3,7 C -5,8 C 42,5 km/h (6 Bft)
09.11.2007 07:09 6,9 C 78 % 996,5 hPa 0,0 l/m 52,9 km/h (7 Bft) NW 325 0 min 0 W/m 3,3 C -7,4 C 52,9 km/h (7 Bft)
09.11.2007 07:14 6,6 C 78 % 996,5 hPa 0,0 l/m 42,8 km/h (6 Bft) N-NW 335 0 min 0 W/m 3,0 C -6,6 C 42,8 km/h (6 Bft)
09.11.2007 07:19 6,6 C 79 % 996,5 hPa 0,0 l/m 49,3 km/h (7 Bft) NW 320 0 min 0 W/m 3,2 C -7,5 C 49,3 km/h (7 Bft)
09.11.2007 07:24 6,6 C 80 % 996,5 hPa 0,0 l/m 45,7 km/h (6 Bft) NW 320 0 min 0 W/m 3,4 C -7,0 C 45,7 km/h (6 Bft)
09.11.2007 07:29 6,4 C 79 % 996,5 hPa 0,0 l/m 36,4 km/h (5 Bft) NW 320 0 min 0 W/m 3,0 C -5,8 C 36,4 km/h (5 Bft)
09.11.2007 07:34 6,4 C 80 % 996,5 hPa 0,0 l/m 41,4 km/h (6 Bft) NW 325 0 min 0 W/m 3,2 C -6,7 C 41,4 km/h (6 Bft)
09.11.2007 07:39 6,4 C 81 % 997,5 hPa 0,3 l/m 42,7 km/h (6 Bft) N 355 0 min 0 W/m 3,4 C -6,9 C 42,7 km/h (6 Bft)
09.11.2007 07:44 5,8 C 84 % 997,5 hPa 0,0 l/m 42,7 km/h (6 Bft) N 355 0 min 0 W/m 3,3 C -7,8 C 42,7 km/h (6 Bft)
09.11.2007 07:49 5,6 C 85 % 997,5 hPa 0,0 l/m 37,2 km/h (5 Bft) N-NW 330 0 min 0 W/m 3,3 C -7,1 C 37,2 km/h (5 Bft)
09.11.2007 07:54 5,5 C 85 % 996,5 hPa 0,0 l/m 29,8 km/h (5 Bft) NW 315 0 min 0 W/m 3,2 C -5,6 C 29,8 km/h (5 Bft)
09.11.2007 07:59 5,7 C 86 % 996,5 hPa 0,0 l/m 29,8 km/h (5 Bft) NW 320 0 min 0 W/m 3,5 C -5,3 C 29,8 km/h (5 Bft)
09.11.2007 08:04 5,8 C 86 % 996,5 hPa 0,0 l/m 30,8 km/h (5 Bft) NW 320 0 min 0 W/m 3,6 C -5,4 C 30,8 km/h (5 Bft)
09.11.2007 08:09 6,2 C 86 % 996,5 hPa 0,0 l/m 27,4 km/h (5 Bft) NW 315 0 min 0 W/m 4,0 C -4,0 C 27,4 km/h (5 Bft)
09.11.2007 08:14 6,2 C 86 % 996,5 hPa 0,6 l/m 38,8 km/h (6 Bft) NW 315 0 min 0 W/m 4,0 C -6,5 C 38,8 km/h (6 Bft)
09.11.2007 08:19 6,4 C 85 % 996,5 hPa 0,0 l/m 31,1 km/h (5 Bft) NW 310 0 min 0 W/m 4,1 C -4,7 C 31,1 km/h (5 Bft)
09.11.2007 08:24 6,4 C 82 % 996,5 hPa 0,0 l/m 35,4 km/h (5 Bft) NW 325 0 min 0 W/m 3,6 C -5,6 C 35,4 km/h (5 Bft)
09.11.2007 08:29 6,7 C 83 % 996,5 hPa 0,3 l/m 44,6 km/h (6 Bft) NW 320 0 min 0 W/m 4,0 C -6,7 C 44,6 km/h (6 Bft)
09.11.2007 08:34 6,5 C 82 % 996,5 hPa 0,0 l/m 44,6 km/h (6 Bft) NW 325 0 min 0 W/m 3,7 C -7,0 C 44,6 km/h (6 Bft)
09.11.2007 08:39 6,4 C 83 % 996,5 hPa 0,0 l/m 38,9 km/h (6 Bft) N-NW 330 0 min 0 W/m 3,7 C -6,3 C 38,9 km/h (6 Bft)
09.11.2007 08:44 6,6 C 82 % 996,5 hPa 0,0 l/m 39,3 km/h (6 Bft) NW 315 0 min 0 W/m 3,8 C -6,0 C 39,3 km/h (6 Bft)
09.11.2007 08:49 7,0 C 79 % 996,5 hPa 0,0 l/m 43,8 km/h (6 Bft) NW 315 0 min 0 W/m 3,6 C -6,1 C 43,8 km/h (6 Bft)
09.11.2007 08:54 6,9 C 78 % 996,5 hPa 0,0 l/m 39,3 km/h (6 Bft) N-NW 340 0 min 0 W/m 3,3 C -5,6 C 39,3 km/h (6 Bft)
09.11.2007 08:59 7,2 C 78 % 996,5 hPa 0,0 l/m 39,9 km/h (6 Bft) NW 325 0 min 0 W/m 3,6 C -5,2 C 39,9 km/h (6 Bft)
09.11.2007 09:04 7,6 C 78 % 996,5 hPa 0,0 l/m 48,4 km/h (6 Bft) N-NW 340 0 min 0 W/m 4,0 C -5,8 C 48,4 km/h (6 Bft)
09.11.2007 09:09 7,9 C 74 % 996,5 hPa 0,0 l/m 50,6 km/h (7 Bft) NW 325 0 min 0 W/m 3,6 C -5,6 C 50,6 km/h (7 Bft)
09.11.2007 09:14 7,9 C 77 % 996,5 hPa 0,0 l/m 40,6 km/h (6 Bft) N 10 0 min 0 W/m 4,1 C -4,3 C 40,6 km/h (6 Bft)
09.11.2007 09:19 7,7 C 76 % 997,5 hPa 0,0 l/m 48,4 km/h (6 Bft) N 350 0 min 0 W/m 3,7 C -5,7 C 48,4 km/h (6 Bft)
09.11.2007 09:24 7,0 C 81 % 997,5 hPa 0,3 l/m 42,2 km/h (6 Bft) N-NO 15 0 min 0 W/m 4,0 C -5,9 C 42,2 km/h (6 Bft)
09.11.2007 09:29 6,7 C 83 % 997,5 hPa 0,0 l/m 46,9 km/h (6 Bft) N 355 0 min 0 W/m 4,0 C -7,0 C 46,9 km/h (6 Bft)
09.11.2007 09:34 6,7 C 83 % 997,5 hPa 0,0 l/m 46,9 km/h (6 Bft) N 355 0 min 0 W/m 4,0 C -7,0 C 46,9 km/h (6 Bft)
09.11.2007 09:39 6,6 C 85 % 997,5 hPa 0,0 l/m 46,4 km/h (6 Bft) N 5 0 min 0 W/m 4,3 C -7,1 C 46,4 km/h (6 Bft)
09.11.2007 09:44 6,8 C 80 % 997,5 hPa 0,0 l/m 60,7 km/h (7 Bft) N-NW 345 0 min 0 W/m 3,6 C -8,2 C 60,7 km/h (7 Bft)
09.11.2007 09:49 7,1 C 82 % 997,5 hPa 0,3 l/m 44,6 km/h (6 Bft) N-NW 340 0 min 0 W/m 4,2 C -6,1 C 44,6 km/h (6 Bft)
09.11.2007 09:54 7,5 C 79 % 997,5 hPa 0,0 l/m 50,4 km/h (7 Bft) N 355 0 min 0 W/m 4,1 C -6,2 C 50,4 km/h (7 Bft)
09.11.2007 09:59 7,6 C 75 % 997,5 hPa 0,0 l/m 48,9 km/h (7 Bft) N 355 0 min 0 W/m 3,5 C -5,9 C 48,9 km/h (7 Bft)
09.11.2007 10:04 7,8 C 76 % 997,5 hPa 0,0 l/m 49,2 km/h (7 Bft) N 5 0 min 0 W/m 3,8 C -5,6 C 49,2 km/h (7 Bft)
09.11.2007 10:09 8,0 C 74 % 997,5 hPa 0,0 l/m 53,0 km/h (7 Bft) NW 325 0 min 0 W/m 3,7 C -5,7 C 53,0 km/h (7 Bft)
09.11.2007 10:14 8,3 C 73 % 997,5 hPa 0,0 l/m 57,3 km/h (7 Bft) N-NW 340 0 min 0 W/m 3,8 C -5,6 C 57,3 km/h (7 Bft)
09.11.2007 10:19 8,4 C 75 % 997,5 hPa 0,0 l/m 43,8 km/h (6 Bft) N-NW 340 0 min 0 W/m 4,2 C -4,0 C 43,8 km/h (6 Bft)
09.11.2007 10:24 8,4 C 75 % 997,5 hPa 0,0 l/m 44,9 km/h (6 Bft) N-NW 330 0 min 0 W/m 4,2 C -4,2 C 44,9 km/h (6 Bft)
09.11.2007 10:29 8,0 C 71 % 997,5 hPa 0,0 l/m 54,7 km/h (7 Bft) N 5 0 min 0 W/m 3,1 C -5,8 C 54,7 km/h (7 Bft)
09.11.2007 10:34 7,6 C 78 % 997,5 hPa 0,0 l/m 47,3 km/h (6 Bft) N 355 0 min 0 W/m 4,0 C -5,7 C 47,3 km/h (6 Bft)
09.11.2007 10:39 7,5 C 78 % 997,5 hPa 0,0 l/m 41,9 km/h (6 Bft) N-NW 340 0 min 0 W/m 3,9 C -5,1 C 41,9 km/h (6 Bft)
09.11.2007 10:44 7,9 C 77 % 997,5 hPa 0,0 l/m 48,5 km/h (6 Bft) NW 325 0 min 0 W/m 4,1 C -5,4 C 48,5 km/h (6 Bft)
09.11.2007 10:49 8,2 C 77 % 997,5 hPa 0,0 l/m 41,5 km/h (6 Bft) NW 320 0 min 0 W/m 4,4 C -4,0 C 41,5 km/h (6 Bft)
09.11.2007 10:54 8,2 C 76 % 997,5 hPa 0,3 l/m 52,0 km/h (7 Bft) N-NW 340 0 min 0 W/m 4,2 C -5,3 C 52,0 km/h (7 Bft)
09.11.2007 10:59 7,6 C 79 % 997,5 hPa 0,0 l/m 52,8 km/h (7 Bft) N-NW 340 0 min 0 W/m 4,2 C -6,3 C 52,8 km/h (7 Bft)
09.11.2007 11:04 7,1 C 83 % 998,5 hPa 0,0 l/m 59,7 km/h (7 Bft) N 360 0 min 0 W/m 4,4 C -7,7 C 59,7 km/h (7 Bft)
09.11.2007 11:09 6,8 C 83 % 998,5 hPa 0,0 l/m 51,8 km/h (7 Bft) N 5 0 min 0 W/m 4,1 C -7,4 C 51,8 km/h (7 Bft)
09.11.2007 11:14 6,8 C 83 % 998,5 hPa 0,0 l/m 54,5 km/h (7 Bft) N 360 0 min 0 W/m 4,1 C -7,7 C 54,5 km/h (7 Bft)
09.11.2007 11:19 7,2 C 83 % 998,5 hPa 0,0 l/m 48,6 km/h (6 Bft) N 355 0 min 0 W/m 4,5 C -6,5 C 48,6 km/h (6 Bft)
09.11.2007 11:24 7,2 C 82 % 998,5 hPa 0,0 l/m 39,9 km/h (6 Bft) N 5 0 min 0 W/m 4,3 C -5,2 C 39,9 km/h (6 Bft)
09.11.2007 11:29 7,2 C 82 % 998,5 hPa 0,0 l/m 41,7 km/h (6 Bft) N 5 0 min 0 W/m 4,3 C -5,5 C 41,7 km/h (6 Bft)
09.11.2007 11:34 7,2 C 81 % 998,5 hPa 0,0 l/m 56,4 km/h (7 Bft) N-NO 25 0 min 0 W/m 4,2 C -7,2 C 56,4 km/h (7 Bft)
09.11.2007 11:39 6,7 C 83 % 998,5 hPa 0,3 l/m 47,7 km/h (6 Bft) N 10 0 min 0 W/m 4,0 C -7,1 C 47,7 km/h (6 Bft)
09.11.2007 11:44 6,7 C 82 % 998,5 hPa 0,0 l/m 52,7 km/h (7 Bft) N 360 0 min 0 W/m 3,8 C -7,7 C 52,7 km/h (7 Bft)
09.11.2007 11:49 7,2 C 80 % 998,5 hPa 0,0 l/m 55,0 km/h (7 Bft) N 5 0 min 0 W/m 4,0 C -7,1 C 55,0 km/h (7 Bft)
09.11.2007 11:54 7,2 C 78 % 998,5 hPa 0,0 l/m 57,2 km/h (7 Bft) N 355 0 min 0 W/m 3,6 C -7,3 C 57,2 km/h (7 Bft)
09.11.2007 11:59 7,2 C 78 % 998,5 hPa 0,0 l/m 45,5 km/h (6 Bft) N 10 0 min 0 W/m 3,6 C -6,1 C 45,5 km/h (6 Bft)
09.11.2007 12:04 7,6 C 77 % 998,5 hPa 0,0 l/m 54,7 km/h (7 Bft) N 350 0 min 0 W/m 3,8 C -6,5 C 54,7 km/h (7 Bft)
09.11.2007 12:09 8,4 C 73 % 998,5 hPa 0,0 l/m 55,2 km/h (7 Bft) N 355 0 min 0 W/m 3,8 C -5,3 C 55,2 km/h (7 Bft)
09.11.2007 12:14 8,9 C 71 % 998,5 hPa 0,0 l/m 46,1 km/h (6 Bft) N 10 0 min 0 W/m 3,9 C -3,6 C 46,1 km/h (6 Bft)
09.11.2007 12:19 9,2 C 69 % 998,5 hPa 0,0 l/m 49,5 km/h (7 Bft) N 10 0 min 0 W/m 3,8 C -3,5 C 49,5 km/h (7 Bft)
09.11.2007 12:24 9,3 C 69 % 999,5 hPa 0,0 l/m 55,8 km/h (7 Bft) N-NW 335 0 min 0 W/m 3,9 C -3,9 C 55,8 km/h (7 Bft)
09.11.2007 12:29 9,2 C 71 % 999,5 hPa 0,0 l/m 59,1 km/h (7 Bft) N 355 0 min 0 W/m 4,2 C -4,3 C 59,1 km/h (7 Bft)
09.11.2007 12:34 9,2 C 73 % 999,5 hPa 0,0 l/m 47,7 km/h (6 Bft) N-NW 340 0 min 0 W/m 4,6 C -3,3 C 47,7 km/h (6 Bft)
09.11.2007 12:39 9,2 C 73 % 999,5 hPa 0,0 l/m 50,6 km/h (7 Bft) N 5 0 min 0 W/m 4,6 C -3,6 C 50,6 km/h (7 Bft)
09.11.2007 12:43 8,9 C 68 % 999,5 hPa 0,0 l/m 59,3 km/h (7 Bft) N 10 0 min 0 W/m 3,3 C -4,8 C 59,3 km/h (7 Bft)
09.11.2007 12:49 8,8 C 66 % 999,5 hPa 0,0 l/m 68,4 km/h (8 Bft) N-NW 345 0 min 0 W/m 2,8 C -5,5 C 68,4 km/h (8 Bft)
09.11.2007 12:54 8,8 C 66 % 999,5 hPa 0,0 l/m 55,8 km/h (7 Bft) N 5 0 min 0 W/m 2,8 C -4,7 C 55,8 km/h (7 Bft)
09.11.2007 12:59 8,9 C 67 % 999,5 hPa 0,0 l/m 52,2 km/h (7 Bft) N 355 0 min 0 W/m 3,1 C -4,2 C 52,2 km/h (7 Bft)
09.11.2007 13:04 8,8 C 65 % 999,5 hPa 0,0 l/m 51,7 km/h (7 Bft) N-NO 15 0 min 0 W/m 2,6 C -4,3 C 51,7 km/h (7 Bft)
09.11.2007 13:09 8,8 C 67 % 999,5 hPa 0,0 l/m 50,0 km/h (7 Bft) N 355 0 min 0 W/m 3,0 C -4,2 C 50,0 km/h (7 Bft)
09.11.2007 13:14 9,0 C 67 % 1000,5 hPa 0,0 l/m 56,8 km/h (7 Bft) NW 325 0 min 0 W/m 3,2 C -4,5 C 56,8 km/h (7 Bft)
09.11.2007 13:19 8,7 C 68 % 1000,5 hPa 0,0 l/m 40,9 km/h (6 Bft) N 350 0 min 0 W/m 3,1 C -3,2 C 40,9 km/h (6 Bft)
09.11.2007 13:24 8,8 C 69 % 1000,5 hPa 0,0 l/m 49,9 km/h (7 Bft) N-NO 15 0 min 0 W/m 3,4 C -4,1 C 49,9 km/h (7 Bft)
09.11.2007 13:29 8,9 C 65 % 1000,5 hPa 0,0 l/m 57,1 km/h (7 Bft) N-NO 30 0 min 0 W/m 2,7 C -4,6 C 57,1 km/h (7 Bft)
09.11.2007 13:34 8,9 C 64 % 1000,5 hPa 0,0 l/m 57,1 km/h (7 Bft) N-NO 30 0 min 0 W/m 2,5 C -4,6 C 57,1 km/h (7 Bft)
09.11.2007 13:39 8,8 C 65 % 1000,5 hPa 0,0 l/m 55,0 km/h (7 Bft) N 5 0 min 0 W/m 2,6 C -4,6 C 55,0 km/h (7 Bft)
09.11.2007 13:44 8,8 C 65 % 1000,5 hPa 0,0 l/m 53,8 km/h (7 Bft) N 355 0 min 0 W/m 2,6 C -4,5 C 53,8 km/h (7 Bft)
09.11.2007 13:49 8,9 C 67 % 1000,5 hPa 0,0 l/m 57,9 km/h (7 Bft) N 360 0 min 0 W/m 3,1 C -4,7 C 57,9 km/h (7 Bft)
09.11.2007 13:54 8,9 C 67 % 1000,5 hPa 0,0 l/m 59,5 km/h (7 Bft) N 5 0 min 0 W/m 3,1 C -4,8 C 59,5 km/h (7 Bft)
09.11.2007 13:59 9,0 C 67 % 1000,5 hPa 0,0 l/m 55,4 km/h (7 Bft) N 360 0 min 0 W/m 3,2 C -4,4 C 55,4 km/h (7 Bft)
09.11.2007 14:04 9,2 C 66 % 1001,5 hPa 0,0 l/m 44,2 km/h (6 Bft) N 5 0 min 0 W/m 3,2 C -2,9 C 44,2 km/h (6 Bft)
09.11.2007 14:09 9,0 C 66 % 1001,5 hPa 0,0 l/m 62,2 km/h (7 Bft) N 350 0 min 0 W/m 3,0 C -4,8 C 62,2 km/h (7 Bft)
09.11.2007 14:14 8,7 C 68 % 1001,5 hPa 0,0 l/m 55,8 km/h (7 Bft) N-NO 30 0 min 0 W/m 3,1 C -4,9 C 55,8 km/h (7 Bft)
09.11.2007 14:19 8,4 C 72 % 1001,5 hPa 0,0 l/m 51,1 km/h (7 Bft) N 360 0 min 0 W/m 3,7 C -4,9 C 51,1 km/h (7 Bft)
09.11.2007 14:24 8,5 C 69 % 1001,5 hPa 0,0 l/m 56,3 km/h (7 Bft) N-NO 15 0 min 0 W/m 3,1 C -5,2 C 56,3 km/h (7 Bft)
09.11.2007 14:29 8,6 C 67 % 1001,5 hPa 0,0 l/m 54,0 km/h (7 Bft) N 355 0 min 0 W/m 2,8 C -4,9 C 54,0 km/h (7 Bft)
09.11.2007 14:34 8,7 C 66 % 1001,5 hPa 0,0 l/m 52,7 km/h (7 Bft) N 360 0 min 0 W/m 2,7 C -4,6 C 52,7 km/h (7 Bft)
09.11.2007 14:39 8,8 C 65 % 1001,5 hPa 0,0 l/m 52,4 km/h (7 Bft) N-NW 345 0 min 0 W/m 2,6 C -4,4 C 52,4 km/h (7 Bft)
09.11.2007 14:44 8,8 C 66 % 1001,5 hPa 0,0 l/m 56,9 km/h (7 Bft) N 10 0 min 0 W/m 2,8 C -4,8 C 56,9 km/h (7 Bft)
09.11.2007 14:49 8,9 C 66 % 1001,5 hPa 0,0 l/m 55,2 km/h (7 Bft) N 360 0 min 0 W/m 2,9 C -4,5 C 55,2 km/h (7 Bft)
09.11.2007 14:54 9,0 C 67 % 1001,5 hPa 0,0 l/m 58,9 km/h (7 Bft) N-NO 15 0 min 0 W/m 3,2 C -4,6 C 58,9 km/h (7 Bft)
09.11.2007 14:59 7,8 C 71 % 1002,5 hPa 0,3 l/m 67,7 km/h (8 Bft) N-NW 340 0 min 0 W/m 2,9 C -7,0 C 67,7 km/h (8 Bft)
09.11.2007 15:04 7,6 C 72 % 1002,5 hPa 0,0 l/m 53,6 km/h (7 Bft) N 10 0 min 0 W/m 2,9 C -6,4 C 53,6 km/h (7 Bft)
09.11.2007 15:09 7,9 C 75 % 1002,5 hPa 0,0 l/m 50,5 km/h (7 Bft) N 5 0 min 0 W/m 3,7 C -5,6 C 50,5 km/h (7 Bft)
09.11.2007 15:14 7,8 C 72 % 1002,5 hPa 0,0 l/m 57,5 km/h (7 Bft) N 355 0 min 0 W/m 3,1 C -6,4 C 57,5 km/h (7 Bft)
09.11.2007 15:19 7,8 C 71 % 1002,5 hPa 0,0 l/m 63,8 km/h (8 Bft) N-NO 15 0 min 0 W/m 2,9 C -6,8 C 63,8 km/h (8 Bft)
09.11.2007 15:24 8,0 C 73 % 1002,5 hPa 0,0 l/m 52,2 km/h (7 Bft) N 360 0 min 0 W/m 3,5 C -5,6 C 52,2 km/h (7 Bft)
09.11.2007 15:29 8,3 C 70 % 1002,5 hPa 0,0 l/m 53,0 km/h (7 Bft) N 360 0 min 0 W/m 3,2 C -5,2 C 53,0 km/h (7 Bft)
09.11.2007 15:34 8,4 C 69 % 1002,5 hPa 0,0 l/m 51,9 km/h (7 Bft) N 5 0 min 0 W/m 3,0 C -5,0 C 51,9 km/h (7 Bft)
09.11.2007 15:39 8,5 C 66 % 1002,5 hPa 0,0 l/m 56,7 km/h (7 Bft) N 5 0 min 0 W/m 2,5 C -5,2 C 56,7 km/h (7 Bft)
09.11.2007 15:44 8,4 C 66 % 1002,5 hPa 0,0 l/m 49,3 km/h (7 Bft) N 10 0 min 0 W/m 2,4 C -4,7 C 49,3 km/h (7 Bft)
09.11.2007 15:49 8,4 C 68 % 1003,5 hPa 0,0 l/m 48,3 km/h (6 Bft) N-NO 20 0 min 0 W/m 2,8 C -4,6 C 48,3 km/h (6 Bft)
09.11.2007 15:54 8,4 C 66 % 1003,5 hPa 0,0 l/m 58,6 km/h (7 Bft) N 5 0 min 0 W/m 2,4 C -5,5 C 58,6 km/h (7 Bft)
09.11.2007 15:59 8,5 C 68 % 1003,5 hPa 0,0 l/m 48,4 km/h (6 Bft) N-NW 340 0 min 0 W/m 2,9 C -4,4 C 48,4 km/h (6 Bft)
09.11.2007 16:04 8,5 C 69 % 1003,5 hPa 0,0 l/m 44,7 km/h (6 Bft) N-NO 20 0 min 0 W/m 3,1 C -4,0 C 44,7 km/h (6 Bft)
09.11.2007 16:09 8,5 C 69 % 1003,5 hPa 0,0 l/m 48,5 km/h (6 Bft) N-NO 15 0 min 0 W/m 3,1 C -4,5 C 48,5 km/h (6 Bft)
09.11.2007 16:14 8,6 C 66 % 1003,5 hPa 0,0 l/m 48,6 km/h (6 Bft) N 360 0 min 0 W/m 2,6 C -4,3 C 48,6 km/h (6 Bft)
09.11.2007 16:19 8,7 C 68 % 1003,5 hPa 0,0 l/m 50,8 km/h (7 Bft) N-NW 335 0 min 0 W/m 3,1 C -4,4 C 50,8 km/h (7 Bft)
09.11.2007 16:24 8,4 C 72 % 1003,5 hPa 0,0 l/m 53,5 km/h (7 Bft) N 5 0 min 0 W/m 3,7 C -5,1 C 53,5 km/h (7 Bft)
09.11.2007 16:29 7,8 C 75 % 1004,5 hPa 0,0 l/m 46,7 km/h (6 Bft) N 5 0 min 0 W/m 3,7 C -5,3 C 46,7 km/h (6 Bft)
09.11.2007 16:34 7,8 C 75 % 1004,5 hPa 0,0 l/m 47,5 km/h (6 Bft) N 350 0 min 0 W/m 3,7 C -5,4 C 47,5 km/h (6 Bft)
09.11.2007 16:39 7,8 C 75 % 1004,5 hPa 0,0 l/m 51,6 km/h (7 Bft) N-NW 335 0 min 0 W/m 3,7 C -5,9 C 51,6 km/h (7 Bft)
09.11.2007 16:44 7,9 C 69 % 1004,5 hPa 0,0 l/m 52,7 km/h (7 Bft) N 355 0 min 0 W/m 2,6 C -5,8 C 52,7 km/h (7 Bft)
09.11.2007 16:49 7,9 C 71 % 1004,5 hPa 0,0 l/m 52,8 km/h (7 Bft) N-NO 20 0 min 0 W/m 3,0 C -5,8 C 52,8 km/h (7 Bft)
09.11.2007 16:54 8,0 C 72 % 1004,5 hPa 0,0 l/m 49,2 km/h (7 Bft) N 360 0 min 0 W/m 3,3 C -5,3 C 49,2 km/h (7 Bft)
09.11.2007 16:59 7,9 C 73 % 1004,5 hPa 0,0 l/m 53,0 km/h (7 Bft) N-NO 20 0 min 0 W/m 3,4 C -5,8 C 53,0 km/h (7 Bft)
09.11.2007 17:04 7,6 C 71 % 1004,5 hPa 0,0 l/m 44,5 km/h (6 Bft) N-NO 25 0 min 0 W/m 2,7 C -5,3 C 44,5 km/h (6 Bft)
09.11.2007 17:09 7,1 C 74 % 1004,5 hPa 0,0 l/m 49,1 km/h (7 Bft) N-NO 25 0 min 0 W/m 2,8 C -6,7 C 49,1 km/h (7 Bft)
09.11.2007 17:14 6,9 C 76 % 1005,5 hPa 0,0 l/m 33,1 km/h (5 Bft) N-NO 25 0 min 0 W/m 3,0 C -4,4 C 33,1 km/h (5 Bft)
09.11.2007 17:19 6,8 C 74 % 1005,5 hPa 0,0 l/m 50,0 km/h (7 Bft) NO 35 0 min 0 W/m 2,5 C -7,2 C 50,0 km/h (7 Bft)
09.11.2007 17:24 6,8 C 78 % 1005,5 hPa 0,3 l/m 47,0 km/h (6 Bft) N-NO 25 0 min 0 W/m 3,2 C -6,9 C 47,0 km/h (6 Bft)
09.11.2007 17:29 6,8 C 77 % 1005,5 hPa 0,0 l/m 40,8 km/h (6 Bft) N-NO 15 0 min 0 W/m 3,1 C -6,0 C 40,8 km/h (6 Bft)
09.11.2007 17:34 6,8 C 76 % 1005,5 hPa 0,0 l/m 40,8 km/h (6 Bft) N 360 0 min 0 W/m 2,9 C -6,0 C 40,8 km/h (6 Bft)
09.11.2007 17:39 7,1 C 77 % 1005,5 hPa 0,0 l/m 36,0 km/h (5 Bft) N 355 0 min 0 W/m 3,3 C -4,7 C 36,0 km/h (5 Bft)
09.11.2007 17:44 7,2 C 75 % 1005,5 hPa 0,0 l/m 53,8 km/h (7 Bft) N 355 0 min 0 W/m 3,1 C -7,0 C 53,8 km/h (7 Bft)
09.11.2007 17:49 7,6 C 70 % 1005,5 hPa 0,0 l/m 44,9 km/h (6 Bft) N 5 0 min 0 W/m 2,5 C -5,4 C 44,9 km/h (6 Bft)
09.11.2007 17:54 7,9 C 73 % 1005,5 hPa 0,0 l/m 43,8 km/h (6 Bft) N 5 0 min 0 W/m 3,4 C -4,8 C 43,8 km/h (6 Bft)
09.11.2007 17:59 7,8 C 67 % 1005,5 hPa 0,0 l/m 52,7 km/h (7 Bft) N 5 0 min 0 W/m 2,1 C -6,0 C 52,7 km/h (7 Bft)
09.11.2007 18:04 7,7 C 68 % 1005,5 hPa 0,0 l/m 52,2 km/h (7 Bft) N-NO 15 0 min 0 W/m 2,2 C -6,1 C 52,2 km/h (7 Bft)
09.11.2007 18:09 7,7 C 69 % 1005,5 hPa 0,0 l/m 44,6 km/h (6 Bft) N-NO 20 0 min 0 W/m 2,4 C -5,2 C 44,6 km/h (6 Bft)
09.11.2007 18:14 7,7 C 68 % 1005,5 hPa 0,0 l/m 52,2 km/h (7 Bft) N 5 0 min 0 W/m 2,2 C -6,1 C 52,2 km/h (7 Bft)
09.11.2007 18:19 7,8 C 66 % 1005,5 hPa 0,0 l/m 50,5 km/h (7 Bft) N 360 0 min 0 W/m 1,9 C -5,7 C 50,5 km/h (7 Bft)
09.11.2007 18:24 7,8 C 63 % 1006,5 hPa 0,0 l/m 49,6 km/h (7 Bft) N 355 0 min 0 W/m 1,2 C -5,6 C 49,6 km/h (7 Bft)
09.11.2007 18:29 7,5 C 72 % 1006,5 hPa 0,0 l/m 50,7 km/h (7 Bft) N-NW 340 0 min 0 W/m 2,8 C -6,2 C 50,7 km/h (7 Bft)
09.11.2007 18:34 7,2 C 71 % 1006,5 hPa 0,0 l/m 49,5 km/h (7 Bft) N-NW 340 0 min 0 W/m 2,3 C -6,6 C 49,5 km/h (7 Bft)
09.11.2007 18:39 6,8 C 72 % 1006,5 hPa 0,0 l/m 44,5 km/h (6 Bft) N 5 0 min 0 W/m 2,1 C -6,5 C 44,5 km/h (6 Bft)
09.11.2007 18:44 6,6 C 70 % 1006,5 hPa 0,0 l/m 56,0 km/h (7 Bft) N-NO 20 0 min 0 W/m 1,5 C -8,1 C 56,0 km/h (7 Bft)
09.11.2007 18:49 6,5 C 71 % 1006,5 hPa 0,0 l/m 49,3 km/h (7 Bft) N-NO 30 0 min 0 W/m 1,6 C -7,6 C 49,3 km/h (7 Bft)
09.11.2007 18:54 6,0 C 74 % 1006,5 hPa 0,0 l/m 43,6 km/h (6 Bft) N-NO 15 0 min 0 W/m 1,7 C -7,6 C 43,6 km/h (6 Bft)
09.11.2007 18:59 6,1 C 74 % 1006,5 hPa 0,0 l/m 42,6 km/h (6 Bft) N-NO 15 0 min 0 W/m 1,8 C -7,3 C 42,6 km/h (6 Bft)
09.11.2007 19:04 6,3 C 74 % 1006,5 hPa 0,0 l/m 43,9 km/h (6 Bft) N 360 0 min 0 W/m 2,0 C -7,2 C 43,9 km/h (6 Bft)
09.11.2007 19:09 6,3 C 74 % 1006,5 hPa 0,0 l/m 39,8 km/h (6 Bft) N 5 0 min 0 W/m 2,0 C -6,6 C 39,8 km/h (6 Bft)
09.11.2007 19:14 6,6 C 76 % 1006,5 hPa 0,0 l/m 33,9 km/h (5 Bft) N 360 0 min 0 W/m 2,7 C -5,0 C 33,9 km/h (5 Bft)
09.11.2007 19:19 6,4 C 72 % 1006,5 hPa 0,0 l/m 48,7 km/h (7 Bft) N 360 0 min 0 W/m 1,7 C -7,7 C 48,7 km/h (7 Bft)
09.11.2007 19:24 6,2 C 72 % 1006,5 hPa 0,0 l/m 42,7 km/h (6 Bft) N-NW 330 0 min 0 W/m 1,5 C -7,2 C 42,7 km/h (6 Bft)
09.11.2007 19:29 6,4 C 75 % 1006,5 hPa 0,0 l/m 40,4 km/h (6 Bft) N 355 0 min 0 W/m 2,3 C -6,5 C 40,4 km/h (6 Bft)
09.11.2007 19:34 6,4 C 75 % 1006,5 hPa 0,0 l/m 45,2 km/h (6 Bft) N 5 0 min 0 W/m 2,3 C -7,2 C 45,2 km/h (6 Bft)
09.11.2007 19:39 5,9 C 77 % 1007,5 hPa 0,3 l/m 43,9 km/h (6 Bft) N 5 0 min 0 W/m 2,2 C -7,8 C 43,9 km/h (6 Bft)
09.11.2007 19:44 5,7 C 77 % 1007,5 hPa 0,0 l/m 41,5 km/h (6 Bft) N 10 0 min 0 W/m 2,0 C -7,7 C 41,5 km/h (6 Bft)
09.11.2007 19:49 6,1 C 80 % 1007,5 hPa 0,0 l/m 36,4 km/h (5 Bft) N 355 0 min 0 W/m 2,9 C -6,2 C 36,4 km/h (5 Bft)
09.11.2007 19:54 6,3 C 80 % 1007,5 hPa 0,0 l/m 47,6 km/h (6 Bft) N 360 0 min 0 W/m 3,1 C -7,7 C 47,6 km/h (6 Bft)
09.11.2007 19:59 5,9 C 77 % 1007,5 hPa 0,0 l/m 52,2 km/h (7 Bft) N 10 0 min 0 W/m 2,2 C -8,9 C 52,2 km/h (7 Bft)
09.11.2007 20:04 5,8 C 78 % 1007,5 hPa 0,0 l/m 41,5 km/h (6 Bft) N 350 0 min 0 W/m 2,3 C -7,6 C 41,5 km/h (6 Bft)
09.11.2007 20:09 6,1 C 76 % 1007,5 hPa 0,0 l/m 46,4 km/h (6 Bft) N 350 0 min 0 W/m 2,2 C -7,9 C 46,4 km/h (6 Bft)
09.11.2007 20:14 6,3 C 75 % 1007,5 hPa 0,0 l/m 43,6 km/h (6 Bft) N 350 0 min 0 W/m 2,2 C -7,2 C 43,6 km/h (6 Bft)
09.11.2007 20:19 6,5 C 77 % 1007,5 hPa 0,0 l/m 43,2 km/h (6 Bft) N 360 0 min 0 W/m 2,8 C -6,8 C 43,2 km/h (6 Bft)
09.11.2007 20:24 6,6 C 75 % 1007,5 hPa 0,0 l/m 52,0 km/h (7 Bft) N-NW 345 0 min 0 W/m 2,5 C -7,8 C 52,0 km/h (7 Bft)
09.11.2007 20:29 6,6 C 76 % 1007,5 hPa 0,0 l/m 49,1 km/h (7 Bft) N 360 0 min 0 W/m 2,7 C -7,4 C 49,1 km/h (7 Bft)
09.11.2007 20:34 6,4 C 76 % 1007,5 hPa 0,0 l/m 46,7 km/h (6 Bft) N-NO 30 0 min 0 W/m 2,5 C -7,4 C 46,7 km/h (6 Bft)
09.11.2007 20:39 6,4 C 75 % 1007,5 hPa 0,0 l/m 41,8 km/h (6 Bft) N 360 0 min 0 W/m 2,3 C -6,7 C 41,8 km/h (6 Bft)
09.11.2007 20:44 6,4 C 73 % 1007,5 hPa 0,0 l/m 50,8 km/h (7 Bft) N 355 0 min 0 W/m 1,9 C -7,9 C 50,8 km/h (7 Bft)
09.11.2007 20:49 6,5 C 73 % 1007,5 hPa 0,3 l/m 38,2 km/h (6 Bft) N 10 0 min 0 W/m 2,0 C -6,0 C 38,2 km/h (6 Bft)
09.11.2007 20:54 5,8 C 79 % 1007,5 hPa 0,0 l/m 54,2 km/h (7 Bft) N 360 0 min 0 W/m 2,4 C -9,2 C 54,2 km/h (7 Bft)
09.11.2007 20:59 5,3 C 83 % 1007,5 hPa 0,6 l/m 40,2 km/h (6 Bft) N 350 0 min 0 W/m 2,7 C -8,1 C 40,2 km/h (6 Bft)
09.11.2007 21:04 5,3 C 83 % 1007,5 hPa 0,0 l/m 58,7 km/h (7 Bft) N 350 0 min 0 W/m 2,7 C -10,4 C 58,7 km/h (7 Bft)
09.11.2007 21:09 5,5 C 82 % 1007,5 hPa 0,0 l/m 42,7 km/h (6 Bft) N-NO 15 0 min 0 W/m 2,7 C -8,2 C 42,7 km/h (6 Bft)
09.11.2007 21:14 5,6 C 80 % 1007,5 hPa 0,0 l/m 40,2 km/h (6 Bft) N-NO 15 0 min 0 W/m 2,4 C -7,7 C 40,2 km/h (6 Bft)
09.11.2007 21:19 5,7 C 80 % 1007,5 hPa 0,0 l/m 44,0 km/h (6 Bft) N 5 0 min 0 W/m 2,5 C -8,1 C 44,0 km/h (6 Bft)
09.11.2007 21:24 5,5 C 82 % 1007,5 hPa 0,3 l/m 47,9 km/h (6 Bft) N 355 0 min 0 W/m 2,7 C -9,0 C 47,9 km/h (6 Bft)
09.11.2007 21:29 4,8 C 85 % 1008,5 hPa 0,3 l/m 46,5 km/h (6 Bft) N-NW 335 0 min 0 W/m 2,5 C -9,8 C 46,5 km/h (6 Bft)
09.11.2007 21:34 4,7 C 84 % 1007,5 hPa 0,0 l/m 46,5 km/h (6 Bft) N-NW 335 0 min 0 W/m 2,2 C -10,0 C 46,5 km/h (6 Bft)
09.11.2007 21:39 4,8 C 84 % 1007,5 hPa 0,0 l/m 40,0 km/h (6 Bft) N 5 0 min 0 W/m 2,3 C -8,8 C 40,0 km/h (6 Bft)
09.11.2007 21:44 5,1 C 83 % 1007,5 hPa 0,0 l/m 43,1 km/h (6 Bft) N 350 0 min 0 W/m 2,5 C -8,9 C 43,1 km/h (6 Bft)
09.11.2007 21:49 5,1 C 83 % 1007,5 hPa 0,0 l/m 43,7 km/h (6 Bft) N-NW 345 0 min 0 W/m 2,5 C -9,0 C 43,7 km/h (6 Bft)
09.11.2007 21:54 5,7 C 83 % 1007,5 hPa 0,0 l/m 42,3 km/h (6 Bft) N 350 0 min 0 W/m 3,0 C -7,9 C 42,3 km/h (6 Bft)
09.11.2007 21:59 5,9 C 83 % 1007,5 hPa 0,0 l/m 34,4 km/h (5 Bft) N 350 0 min 0 W/m 3,2 C -6,1 C 34,4 km/h (5 Bft)
09.11.2007 22:04 5,9 C 84 % 1007,5 hPa 0,0 l/m 36,4 km/h (5 Bft) NW 325 0 min 0 W/m 3,4 C -6,5 C 36,4 km/h (5 Bft)
09.11.2007 22:09 5,9 C 81 % 1007,5 hPa 0,0 l/m 51,6 km/h (7 Bft) N 5 0 min 0 W/m 2,9 C -8,8 C 51,6 km/h (7 Bft)
09.11.2007 22:14 5,7 C 83 % 1007,5 hPa 0,0 l/m 39,4 km/h (6 Bft) N 360 0 min 0 W/m 3,0 C -7,4 C 39,4 km/h (6 Bft)
09.11.2007 22:19 5,6 C 85 % 1007,5 hPa 0,0 l/m 39,2 km/h (6 Bft) N 350 0 min 0 W/m 3,3 C -7,5 C 39,2 km/h (6 Bft)
09.11.2007 22:24 5,6 C 85 % 1007,5 hPa 0,0 l/m 42,6 km/h (6 Bft) N 350 0 min 0 W/m 3,3 C -8,1 C 42,6 km/h (6 Bft)
09.11.2007 22:29 5,9 C 80 % 1007,5 hPa 0,0 l/m 39,6 km/h (6 Bft) N 360 0 min 0 W/m 2,7 C -7,1 C 39,6 km/h (6 Bft)
09.11.2007 22:34 6,0 C 79 % 1007,5 hPa 0,0 l/m 46,2 km/h (6 Bft) N 5 0 min 0 W/m 2,6 C -8,0 C 46,2 km/h (6 Bft)
09.11.2007 22:39 6,0 C 81 % 1007,5 hPa 0,0 l/m 39,1 km/h (6 Bft) N 360 0 min 0 W/m 3,0 C -6,9 C 39,1 km/h (6 Bft)
09.11.2007 22:44 6,2 C 82 % 1007,5 hPa 0,0 l/m 36,5 km/h (5 Bft) N 5 0 min 0 W/m 3,4 C -6,1 C 36,5 km/h (5 Bft)
09.11.2007 22:49 6,1 C 82 % 1007,5 hPa 0,0 l/m 33,1 km/h (5 Bft) N 350 0 min 0 W/m 3,3 C -5,6 C 33,1 km/h (5 Bft)
09.11.2007 22:54 5,8 C 85 % 1007,5 hPa 0,3 l/m 32,0 km/h (5 Bft) N 5 0 min 0 W/m 3,5 C -5,7 C 32,0 km/h (5 Bft)
09.11.2007 22:59 5,6 C 85 % 1007,5 hPa 0,0 l/m 41,7 km/h (6 Bft) N 5 0 min 0 W/m 3,3 C -7,9 C 41,7 km/h (6 Bft)
09.11.2007 23:04 5,2 C 87 % 1007,5 hPa 0,0 l/m 40,8 km/h (6 Bft) N-NO 15 0 min 0 W/m 3,2 C -8,4 C 40,8 km/h (6 Bft)
09.11.2007 23:09 5,4 C 88 % 1007,5 hPa 0,0 l/m 42,2 km/h (6 Bft) N 5 0 min 0 W/m 3,6 C -8,3 C 42,2 km/h (6 Bft)
09.11.2007 23:14 5,4 C 87 % 1007,5 hPa 0,0 l/m 47,4 km/h (6 Bft) N-NO 20 0 min 0 W/m 3,4 C -9,1 C 47,4 km/h (6 Bft)
09.11.2007 23:19 5,1 C 85 % 1007,5 hPa 0,0 l/m 42,7 km/h (6 Bft) N-NO 15 0 min 0 W/m 2,8 C -8,8 C 42,7 km/h (6 Bft)
09.11.2007 23:24 5,1 C 84 % 1007,5 hPa 0,0 l/m 57,3 km/h (7 Bft) N-NW 340 0 min 0 W/m 2,6 C -10,6 C 57,3 km/h (7 Bft)
09.11.2007 23:29 5,2 C 85 % 1007,5 hPa 0,0 l/m 39,8 km/h (6 Bft) N-NW 345 0 min 0 W/m 2,9 C -8,2 C 39,8 km/h (6 Bft)
09.11.2007 23:34 5,2 C 80 % 1007,5 hPa 0,0 l/m 44,8 km/h (6 Bft) N 355 0 min 0 W/m 2,0 C -9,0 C 44,8 km/h (6 Bft)
09.11.2007 23:39 5,6 C 81 % 1007,5 hPa 0,0 l/m 41,1 km/h (6 Bft) N 360 0 min 0 W/m 2,6 C -7,8 C 41,1 km/h (6 Bft)
09.11.2007 23:44 5,7 C 82 % 1007,5 hPa 0,0 l/m 45,4 km/h (6 Bft) N 350 0 min 0 W/m 2,9 C -8,3 C 45,4 km/h (6 Bft)
09.11.2007 23:49 5,9 C 81 % 1007,5 hPa 0,0 l/m 38,2 km/h (6 Bft) N 355 0 min 0 W/m 2,9 C -6,9 C 38,2 km/h (6 Bft)
09.11.2007 23:54 5,8 C 82 % 1007,5 hPa 0,0 l/m 37,1 km/h (5 Bft) N-NO 15 0 min 0 W/m 3,0 C -6,8 C 37,1 km/h (5 Bft)
09.11.2007 23:59 5,8 C 82 % 1007,5 hPa 0,0 l/m 33,2 km/h (5 Bft) N 5 0 min 0 W/m 3,0 C -6,0 C 33,2 km/h (5 Bft)
_ Min-Zeit 21:34 18:24 01:14 - 03:44 - - - - 18:24 23:24 03:44
Minimum _ 4,7 C 63 % 995,5 hPa - 19,6 km/h (3 Bft) - - - - 1,2 C -10,6 C 19,6 km/h (3 Bft)
_ Max-Zeit 12:24 23:09 21:29 01:04 12:49 - - 00:04 00:04 00:19 03:44 12:49
Maximum _ 9,3 C 88 % 1008,5 hPa 0,6 l/m 68,4 km/h
N-NW (8 Bft)
- - 0 min 0 W/m 5,2 C -1,9 C 68,4 km/h
N-NW (8 Bft)
Durchschnitt _ 7,1 C 76 % 1000,7 hPa #6,9 l/m 44,0 km/h (6 Bft) N - #0 min. 0 W/m 3,1 C -5,8 C 44,0 km/h (6 Bft)
copyright by Holger Just